Terminal Aerodrome Forecast
Issued by NWS

Current Version | Previous Version | Text Only | Print | Product List | Glossary On
Versions: 1 2 3 4 5 6 7 8 9 10 11 12 13 14 15 16 17 18 19 20
654
FTUS41 KCAR 100520
TAFBHB
TAF
KBHB 100520Z 1006/1106 33007KT P6SM BKN028
     FM100800 34007KT P6SM SCT035
     FM101200 36004KT P6SM BKN035
     FM101800 VRB03KT P6SM BKN030
     FM110000 VRB03KT P6SM VCSH OVC020
      AMD LTD TO CLD VIS AND WIND=

USA.gov is the U.S. government's official web portal to all federal, state and local government web resources and services.